Time;durP1;ratioP1;P1;durP2;ratioP2;P2;SDS_P1;SDS_P2;PMS_P1;PMS_P2;Temp;Humidity;BMP_temperature;BMP_pressure;BME280_temperature;BME280_humidity;BME280_pressure;Samples;Min_cycle;Max_cycle;Signal;HPM_P1;HPM_P2
2022/12/24 00:00:56;;;;;;;2.85;1.55;;;30.80;99.90;;;;;;4975295;28;20711;-81
2022/12/24 00:03:27;;;;;;;2.38;1.50;;;30.80;99.90;;;;;;4975300;28;20220;-80
2022/12/24 00:05:58;;;;;;;1.95;1.30;;;31.00;99.90;;;;;;4974913;28;20286;-82
2022/12/24 00:08:29;;;;;;;2.03;1.45;;;31.00;99.90;;;;;;4974776;28;20203;-81
2022/12/24 00:11:01;;;;;;;3.85;1.55;;;31.10;99.90;;;;;;4975297;28;20279;-79
2022/12/24 00:13:32;;;;;;;3.38;1.65;;;31.10;99.90;;;;;;4974636;28;20199;-82
2022/12/24 00:16:03;;;;;;;1.60;1.40;;;31.10;99.90;;;;;;4974923;28;20562;-81
2022/12/24 00:18:34;;;;;;;3.20;1.60;;;31.30;99.90;;;;;;4975401;28;20657;-82
2022/12/24 00:21:05;;;;;;;3.17;1.63;;;31.40;99.90;;;;;;4975109;28;20219;-82
2022/12/24 00:23:36;;;;;;;2.20;1.67;;;31.40;99.90;;;;;;4974278;28;20216;-81
2022/12/24 00:26:09;;;;;;;1.58;1.48;;;31.60;99.90;;;;;;4975027;28;20192;-81
2022/12/24 00:28:40;;;;;;;1.98;1.50;;;31.70;99.90;;;;;;4973654;28;20622;-86
2022/12/24 00:31:15;;;;;;;4.38;1.73;;;31.80;99.90;;;;;;4966966;28;20211;-85
2022/12/24 00:33:46;;;;;;;2.55;1.50;;;32.00;99.90;;;;;;4970625;28;20238;-81
2022/12/24 00:36:17;;;;;;;2.83;1.38;;;32.00;99.90;;;;;;4974870;28;20279;-81
2022/12/24 00:38:49;;;;;;;12.27;2.20;;;31.90;99.90;;;;;;4967931;28;20189;-82
2022/12/24 00:41:27;;;;;;;12.23;1.92;;;32.10;99.90;;;;;;4971307;28;20288;-81
2022/12/24 00:43:59;;;;;;;6.82;1.70;;;32.40;99.90;;;;;;4977539;28;20259;-82
2022/12/24 00:46:31;;;;;;;4.35;1.77;;;32.70;99.90;;;;;;4979453;28;20222;-80
2022/12/24 00:49:02;;;;;;;5.13;1.88;;;32.70;99.90;;;;;;4977163;28;20843;-80
2022/12/24 00:51:34;;;;;;;1.27;1.10;;;32.80;99.90;;;;;;4993894;28;20279;-83
2022/12/24 00:54:04;;;;;;;2.33;1.33;;;32.80;99.90;;;;;;4983753;28;20200;-81
2022/12/24 00:56:37;;;;;;;2.25;1.40;;;32.50;99.90;;;;;;4974652;28;20279;-81
2022/12/24 00:59:08;;;;;;;2.40;1.92;;;32.30;99.90;;;;;;4974300;28;20275;-80
2022/12/24 01:01:39;;;;;;;3.08;2.47;;;32.30;99.90;;;;;;4974447;28;20727;-79
2022/12/24 01:06:57;;;;;;;4.78;2.33;;;31.90;99.90;;;;;;4974697;28;20222;-82
2022/12/24 01:09:27;;;;;;;3.72;2.17;;;31.80;99.90;;;;;;4975521;28;20192;-81
2022/12/24 01:12:00;;;;;;;4.13;2.40;;;31.70;99.90;;;;;;4974690;28;20295;-81
2022/12/24 01:14:31;;;;;;;4.28;2.40;;;31.50;99.90;;;;;;4971262;28;20573;-80
2022/12/24 01:17:02;;;;;;;3.60;2.10;;;31.20;99.90;;;;;;4965974;28;20198;-79
2022/12/24 01:19:34;;;;;;;3.55;2.50;;;31.20;99.90;;;;;;4974539;28;20192;-80
2022/12/24 01:22:05;;;;;;;3.53;2.28;;;31.20;99.90;;;;;;4974499;28;20197;-80
2022/12/24 01:24:35;;;;;;;2.65;2.33;;;31.40;99.90;;;;;;4976781;28;20220;-79
2022/12/24 01:27:08;;;;;;;2.88;2.20;;;31.70;99.90;;;;;;4977974;28;20198;-80
2022/12/24 01:29:39;;;;;;;3.53;2.60;;;31.50;99.90;;;;;;4978372;28;20279;-80
2022/12/24 01:32:10;;;;;;;4.88;2.58;;;31.60;99.90;;;;;;4978195;28;20295;-78
2022/12/24 01:34:41;;;;;;;4.80;2.50;;;31.40;99.90;;;;;;4975987;28;20288;-80
2022/12/24 01:37:14;;;;;;;4.88;2.83;;;31.10;99.90;;;;;;4962033;28;20204;-79
2022/12/24 01:39:45;;;;;;;6.35;3.03;;;30.90;99.90;;;;;;4979422;28;20335;-80
2022/12/24 01:45:47;;;;;;;3.70;2.25;;;31.10;99.90;;;;;;5023504;22;20261;-79
2022/12/24 01:48:31;;;;;;;3.53;2.60;;;30.90;99.90;;;;;;4963453;28;20291;-84
2022/12/24 01:51:07;;;;;;;5.68;3.17;;;30.90;99.90;;;;;;5006591;28;20206;-75
2022/12/24 01:53:40;;;;;;;3.30;2.53;;;31.20;99.90;;;;;;5009392;28;20195;-84
2022/12/24 01:56:14;;;;;;;5.45;2.47;;;31.00;99.90;;;;;;5010472;28;20187;-79
2022/12/24 01:58:52;;;;;;;3.05;2.70;;;31.10;99.90;;;;;;5006074;28;20273;-79
2022/12/24 02:01:23;;;;;;;3.95;2.42;;;31.20;99.90;;;;;;5010302;28;20205;-80
2022/12/24 02:03:54;;;;;;;2.92;2.35;;;31.20;99.90;;;;;;5008596;28;20212;-79
2022/12/24 02:06:25;;;;;;;12.18;2.90;;;31.20;99.90;;;;;;5006479;28;20199;-77
2022/12/24 02:08:56;;;;;;;3.33;2.20;;;31.50;99.90;;;;;;5012067;28;20269;-77
2022/12/24 02:11:27;;;;;;;4.18;2.60;;;31.50;99.90;;;;;;5007421;28;20327;-79
2022/12/24 02:14:02;;;;;;;3.42;2.42;;;31.50;99.90;;;;;;5010393;28;20271;-76
2022/12/24 02:16:43;;;;;;;4.25;2.65;;;31.20;99.90;;;;;;5008174;28;20621;-79
2022/12/24 02:19:37;;;;;;;2.75;2.55;;;31.00;99.90;;;;;;5005141;28;20278;-81
2022/12/24 02:22:12;;;;;;;5.18;2.60;;;30.90;99.90;;;;;;5008603;28;20632;-77
2022/12/24 02:25:17;;;;;;;3.50;2.50;;;30.80;99.90;;;;;;5006546;28;20211;-77
2022/12/24 02:27:57;;;;;;;6.28;2.80;;;31.20;99.90;;;;;;5006545;28;20274;-78
2022/12/24 02:30:35;;;;;;;3.67;2.90;;;31.30;99.90;;;;;;5007316;28;20209;-77
2022/12/24 02:33:27;;;;;;;4.53;2.72;;;31.40;99.90;;;;;;5004331;28;20201;-79
2022/12/24 02:36:03;;;;;;;3.25;2.60;;;31.20;99.90;;;;;;5005870;28;20187;-79
2022/12/24 02:38:38;;;;;;;3.65;2.80;;;31.20;99.90;;;;;;5006294;28;20236;-78
2022/12/24 02:41:14;;;;;;;3.40;2.60;;;31.00;99.90;;;;;;5003858;28;20222;-78
2022/12/24 02:43:48;;;;;;;5.30;2.67;;;31.00;99.90;;;;;;5005230;28;20234;-78
2022/12/24 02:46:23;;;;;;;4.10;2.50;;;31.10;99.90;;;;;;4985734;28;20294;-79
2022/12/24 02:48:55;;;;;;;3.38;2.80;;;31.20;99.90;;;;;;5006265;28;20281;-79
2022/12/24 02:51:26;;;;;;;3.97;2.40;;;31.20;99.90;;;;;;4998999;28;20306;-78
2022/12/24 02:53:58;;;;;;;3.30;2.60;;;31.10;99.90;;;;;;5005866;28;20194;-79
2022/12/24 02:57:01;;;;;;;2.78;2.53;;;31.10;99.90;;;;;;4990900;28;20284;-78
2022/12/24 03:00:04;;;;;;;3.80;2.60;;;30.90;99.90;;;;;;4976711;28;20278;-80
2022/12/24 03:02:51;;;;;;;6.22;2.53;;;30.70;99.90;;;;;;4972712;28;20647;-82
2022/12/24 03:05:28;;;;;;;5.75;2.40;;;30.80;99.90;;;;;;4982766;28;20207;-80
2022/12/24 03:08:05;;;;;;;3.70;2.60;;;30.80;99.90;;;;;;4976506;28;20670;-81
2022/12/24 03:10:43;;;;;;;7.10;3.25;;;31.00;99.90;;;;;;4976544;28;20234;-82
2022/12/24 03:13:17;;;;;;;5.90;2.38;;;30.80;99.90;;;;;;4984796;28;20572;-80
2022/12/24 03:15:49;;;;;;;15.43;3.63;;;30.80;99.90;;;;;;5005185;28;20194;-77
2022/12/24 03:18:24;;;;;;;9.10;2.50;;;30.80;99.90;;;;;;4997791;28;20196;-77
2022/12/24 03:21:02;;;;;;;5.40;2.30;;;31.00;99.90;;;;;;4996297;28;20193;-81
2022/12/24 03:23:33;;;;;;;2.42;1.98;;;30.90;99.90;;;;;;4997959;28;20302;-80
2022/12/24 03:26:06;;;;;;;3.50;2.00;;;30.60;99.90;;;;;;4981265;28;20284;-78
2022/12/24 03:28:40;;;;;;;2.47;2.08;;;30.20;99.90;;;;;;4976086;28;20200;-78
2022/12/24 03:31:11;;;;;;;3.65;2.10;;;30.00;99.90;;;;;;4980310;28;20562;-80
2022/12/24 03:33:44;;;;;;;2.85;2.22;;;30.10;99.90;;;;;;4987256;28;20212;-81
2022/12/24 03:36:15;;;;;;;4.25;2.00;;;30.10;99.90;;;;;;4979356;28;20563;-82
2022/12/24 03:38:46;;;;;;;2.17;1.92;;;30.10;99.90;;;;;;5008923;28;20195;-81
2022/12/24 03:41:17;;;;;;;3.33;2.17;;;30.00;99.90;;;;;;5009177;28;20191;-81
2022/12/24 03:43:47;;;;;;;2.47;1.80;;;30.00;99.90;;;;;;4995880;28;20682;-82
2022/12/24 03:46:18;;;;;;;3.88;1.77;;;30.00;99.90;;;;;;5001387;28;20548;-81
2022/12/24 03:48:51;;;;;;;1.90;1.70;;;30.00;99.90;;;;;;4993007;28;20227;-80
2022/12/24 03:51:23;;;;;;;2.50;1.80;;;29.70;99.90;;;;;;5008330;28;20222;-81
2022/12/24 03:53:55;;;;;;;2.80;1.60;;;29.70;99.90;;;;;;5001974;28;20199;-81
2022/12/24 03:56:25;;;;;;;2.92;1.80;;;29.80;99.90;;;;;;4992154;28;20748;-80
2022/12/24 03:58:56;;;;;;;3.50;1.70;;;29.60;99.90;;;;;;4993273;28;20210;-81
2022/12/24 04:01:27;;;;;;;3.15;1.63;;;29.70;99.90;;;;;;5000853;28;20205;-83
2022/12/24 04:04:00;;;;;;;3.63;1.83;;;29.40;99.90;;;;;;5004067;28;20298;-81
2022/12/24 04:06:30;;;;;;;2.10;1.70;;;29.40;99.90;;;;;;4986110;28;20199;-84
2022/12/24 04:09:03;;;;;;;1.50;1.40;;;29.40;99.90;;;;;;4994799;28;20198;-82
2022/12/24 04:11:34;;;;;;;1.98;1.60;;;29.40;99.90;;;;;;4985863;28;20254;-81
2022/12/24 04:14:05;;;;;;;2.35;1.70;;;29.60;99.90;;;;;;5002424;28;20211;-83
2022/12/24 04:16:36;;;;;;;3.63;1.70;;;29.70;99.90;;;;;;4994894;28;20202;-80
2022/12/24 04:19:09;;;;;;;2.05;1.60;;;29.60;99.90;;;;;;5000997;28;20285;-79
2022/12/24 04:21:39;;;;;;;2.03;1.70;;;29.50;99.90;;;;;;5000069;28;20211;-79
2022/12/24 04:24:10;;;;;;;3.03;1.70;;;29.50;99.90;;;;;;4995762;28;20207;-82
2022/12/24 04:26:41;;;;;;;14.45;11.68;;;29.40;99.90;;;;;;4997437;28;20278;-81
2022/12/24 04:29:12;;;;;;;3.50;1.65;;;29.40;99.90;;;;;;4982475;28;20723;-81
2022/12/24 04:31:43;;;;;;;4.38;2.53;;;29.50;99.90;;;;;;5004148;28;20541;-81
2022/12/24 04:34:15;;;;;;;2.78;1.50;;;29.60;99.90;;;;;;5004241;28;20286;-81
2022/12/24 04:36:46;;;;;;;3.70;3.33;;;29.60;99.90;;;;;;5009122;28;20278;-82
2022/12/24 04:39:17;;;;;;;2.53;1.45;;;29.70;99.90;;;;;;5004836;28;20279;-79
2022/12/24 04:41:48;;;;;;;1.30;1.17;;;29.80;99.90;;;;;;5003336;28;20687;-75
2022/12/24 04:44:19;;;;;;;3.83;1.42;;;29.80;99.90;;;;;;4997258;28;20239;-75
2022/12/24 04:46:50;;;;;;;1.55;1.30;;;29.80;99.90;;;;;;4990388;28;20202;-75
2022/12/24 04:49:22;;;;;;;1.83;1.40;;;29.80;99.90;;;;;;5002652;28;20191;-75
2022/12/24 04:51:53;;;;;;;1.63;1.30;;;29.80;99.90;;;;;;5001254;28;20204;-76
2022/12/24 04:54:24;;;;;;;1.85;1.50;;;29.60;99.90;;;;;;4999116;28;20279;-76
2022/12/24 04:56:55;;;;;;;2.92;1.77;;;29.50;99.90;;;;;;4993433;28;20282;-75
2022/12/24 04:59:26;;;;;;;2.65;1.75;;;29.40;99.90;;;;;;4994271;28;20238;-74
2022/12/24 05:01:56;;;;;;;1.67;1.55;;;29.30;99.90;;;;;;4994265;28;20192;-77
2022/12/24 05:04:29;;;;;;;1.98;1.30;;;29.20;99.90;;;;;;4999189;28;20669;-76
2022/12/24 05:07:00;;;;;;;2.65;1.40;;;29.30;99.90;;;;;;4998970;28;20537;-76
2022/12/24 05:09:34;;;;;;;2.60;2.10;;;29.20;99.90;;;;;;4999074;28;20684;-76
2022/12/24 05:12:05;;;;;;;1.85;1.40;;;29.10;99.90;;;;;;4997052;28;20318;-77
2022/12/24 05:14:35;;;;;;;1.90;1.02;;;29.00;99.90;;;;;;4989847;28;20199;-76
2022/12/24 05:17:06;;;;;;;2.53;1.30;;;29.00;99.90;;;;;;4999420;28;20621;-75
2022/12/24 05:19:39;;;;;;;2.45;1.20;;;28.90;99.90;;;;;;5002983;28;20274;-77
2022/12/24 05:27:43;;;;;;;3.13;1.20;;;28.70;99.90;;;;;;4998178;28;20197;-75
2022/12/24 05:30:14;;;;;;;2.88;1.17;;;28.80;99.90;;;;;;5001104;28;21543;-76
2022/12/24 05:32:45;;;;;;;2.10;1.20;;;28.90;99.90;;;;;;4995784;28;20286;-73
2022/12/24 05:35:18;;;;;;;3.45;1.30;;;29.00;99.90;;;;;;5000053;28;20206;-75
2022/12/24 05:37:48;;;;;;;1.70;1.30;;;29.10;99.90;;;;;;4992802;28;20207;-75
2022/12/24 05:40:19;;;;;;;1.80;1.30;;;29.10;99.90;;;;;;4996885;28;20206;-75
2022/12/24 05:42:51;;;;;;;1.63;1.20;;;29.10;99.90;;;;;;4997738;28;20206;-76
2022/12/24 05:45:22;;;;;;;1.52;1.05;;;29.00;99.90;;;;;;4996970;28;20657;-75
2022/12/24 05:47:53;;;;;;;2.38;1.35;;;29.10;99.90;;;;;;4985055;28;20192;-76
2022/12/24 05:50:25;;;;;;;2.05;1.48;;;29.10;99.90;;;;;;4994054;28;20286;-76
2022/12/24 05:52:56;;;;;;;2.75;1.30;;;29.10;99.90;;;;;;4996041;28;20202;-78
2022/12/24 05:55:27;;;;;;;1.75;1.20;;;29.00;99.90;;;;;;4991981;28;20203;-78
2022/12/24 05:57:58;;;;;;;1.75;1.20;;;29.00;99.90;;;;;;4992589;28;20290;-76
2022/12/24 06:00:29;;;;;;;1.70;1.00;;;28.90;99.90;;;;;;4998222;28;20200;-75
2022/12/24 06:03:00;;;;;;;2.83;1.27;;;28.90;99.90;;;;;;4994850;28;20197;-76
2022/12/24 06:05:32;;;;;;;1.63;1.10;;;28.90;99.90;;;;;;5000876;28;20303;-77
2022/12/24 06:08:03;;;;;;;2.17;1.05;;;29.00;99.90;;;;;;4995081;28;20309;-75
2022/12/24 06:10:34;;;;;;;2.22;1.02;;;29.10;99.90;;;;;;4995633;28;20721;-76
2022/12/24 06:13:05;;;;;;;0.93;0.90;;;29.10;99.90;;;;;;5001346;28;20266;-77
2022/12/24 06:15:37;;;;;;;0.80;0.80;;;29.10;99.90;;;;;;4993981;28;20948;-76
2022/12/24 06:18:08;;;;;;;1.08;0.90;;;29.10;99.90;;;;;;5003028;28;20207;-77
2022/12/24 06:20:41;;;;;;;1.48;1.00;;;29.00;99.90;;;;;;4991836;28;20192;-75
2022/12/24 06:23:11;;;;;;;1.42;1.00;;;29.00;99.90;;;;;;4997250;28;20202;-76
2022/12/24 06:25:42;;;;;;;2.15;0.90;;;29.10;99.90;;;;;;5004748;28;20285;-76
2022/12/24 06:28:13;;;;;;;2.65;1.13;;;29.10;99.90;;;;;;5004133;28;20191;-76
2022/12/24 06:30:47;;;;;;;1.40;0.98;;;29.10;99.90;;;;;;5005500;28;20190;-76
2022/12/24 06:33:22;;;;;;;1.40;0.90;;;29.10;99.90;;;;;;5006081;28;20610;-77
2022/12/24 06:35:55;;;;;;;2.22;0.93;;;29.10;99.90;;;;;;5005013;28;20190;-77
2022/12/24 06:38:26;;;;;;;1.45;1.00;;;29.10;99.90;;;;;;5004110;28;20658;-74
2022/12/24 06:40:57;;;;;;;2.38;0.80;;;29.20;99.90;;;;;;5004576;28;20195;-77
2022/12/24 06:43:28;;;;;;;1.73;0.80;;;29.20;99.90;;;;;;5005943;28;20250;-77
2022/12/24 06:45:59;;;;;;;1.58;0.70;;;29.10;99.90;;;;;;4996020;28;20238;-78
2022/12/24 06:48:29;;;;;;;1.35;0.77;;;29.10;99.90;;;;;;4997932;28;20206;-78
2022/12/24 06:51:04;;;;;;;1.85;0.90;;;29.10;99.90;;;;;;4999304;28;20191;-79
2022/12/24 06:53:35;;;;;;;2.20;0.63;;;29.00;99.90;;;;;;4997680;28;20654;-75
2022/12/24 06:56:07;;;;;;;0.60;0.60;;;29.00;99.90;;;;;;5002451;28;20227;-76
2022/12/24 06:58:39;;;;;;;2.25;0.80;;;29.00;99.90;;;;;;4999841;28;20188;-76
2022/12/24 07:01:11;;;;;;;1.15;0.60;;;29.00;99.90;;;;;;5005349;28;20196;-76
2022/12/24 07:03:42;;;;;;;2.40;0.70;;;29.00;99.90;;;;;;5004210;28;20188;-77
2022/12/24 07:06:20;;;;;;;1.17;0.60;;;29.00;99.90;;;;;;5003982;28;20237;-76
2022/12/24 07:08:51;;;;;;;0.73;0.60;;;29.00;99.90;;;;;;5001133;28;20644;-74
2022/12/24 07:11:25;;;;;;;0.95;0.60;;;29.00;99.90;;;;;;5003769;28;20283;-75
2022/12/24 07:13:56;;;;;;;0.77;0.63;;;29.00;99.90;;;;;;5005689;28;20198;-74
2022/12/24 07:16:27;;;;;;;1.00;0.70;;;29.00;99.90;;;;;;4998532;28;20724;-75
2022/12/24 07:18:58;;;;;;;3.22;0.88;;;28.90;99.90;;;;;;4997671;28;20578;-74
2022/12/24 07:21:30;;;;;;;1.95;0.75;;;28.90;99.90;;;;;;4996888;28;20200;-75
2022/12/24 07:24:01;;;;;;;0.65;0.60;;;29.00;99.90;;;;;;5000109;28;20198;-82
2022/12/24 07:26:32;;;;;;;1.35;0.77;;;29.00;99.90;;;;;;5004498;28;20263;-81
2022/12/24 07:29:03;;;;;;;2.20;0.70;;;29.10;99.90;;;;;;4998452;28;20210;-77
2022/12/24 07:31:34;;;;;;;3.95;0.60;;;29.00;99.90;;;;;;4997914;28;20202;-77
2022/12/24 07:34:04;;;;;;;1.10;0.70;;;29.00;99.90;;;;;;4982812;28;20318;-77
2022/12/24 07:36:37;;;;;;;2.17;0.80;;;28.90;99.90;;;;;;4994757;28;20290;-76
2022/12/24 07:39:08;;;;;;;2.05;0.90;;;28.90;99.90;;;;;;4993293;28;20204;-76
2022/12/24 07:41:39;;;;;;;2.08;0.77;;;28.80;99.90;;;;;;4991071;28;20682;-76
2022/12/24 07:44:12;;;;;;;1.65;0.80;;;28.70;99.90;;;;;;4992823;28;20609;-76
2022/12/24 07:46:46;;;;;;;1.48;1.17;;;28.50;99.90;;;;;;5013878;23;20697;-79
2022/12/24 07:49:17;;;;;;;3.63;1.30;;;28.40;99.90;;;;;;4987042;28;20200;-79
2022/12/24 07:51:50;;;;;;;1.38;1.00;;;28.30;99.90;;;;;;4990197;28;20198;-82
2022/12/24 07:54:20;;;;;;;2.45;1.13;;;28.20;99.90;;;;;;4987814;28;20286;-80
2022/12/24 07:56:51;;;;;;;1.65;1.10;;;28.10;99.90;;;;;;4983968;28;20214;-80
2022/12/24 07:59:23;;;;;;;1.85;1.20;;;28.00;99.90;;;;;;4994061;28;20279;-74
2022/12/24 08:01:54;;;;;;;1.90;1.30;;;27.90;99.90;;;;;;4989649;28;20305;-79
2022/12/24 08:04:25;;;;;;;2.63;1.50;;;27.90;99.90;;;;;;4992848;28;20283;-82
2022/12/24 08:06:57;;;;;;;2.05;1.38;;;27.90;99.90;;;;;;4986717;28;20286;-79
2022/12/24 08:09:28;;;;;;;1.95;1.30;;;27.90;99.90;;;;;;4992695;28;20318;-77
2022/12/24 08:11:59;;;;;;;2.65;1.40;;;27.80;99.90;;;;;;4985535;28;20664;-75
2022/12/24 08:14:30;;;;;;;3.08;1.33;;;27.70;99.90;;;;;;4986051;28;20719;-79
2022/12/24 08:17:01;;;;;;;2.78;1.30;;;27.60;99.90;;;;;;4986430;28;20566;-77
2022/12/24 08:19:32;;;;;;;4.00;1.55;;;27.50;99.90;;;;;;4990546;28;20218;-77
2022/12/24 08:22:04;;;;;;;2.28;1.30;;;27.50;99.90;;;;;;4990640;28;20208;-75
2022/12/24 08:24:38;;;;;;;4.15;1.42;;;27.40;99.90;;;;;;4986476;28;20199;-77
2022/12/24 08:27:10;;;;;;;2.95;1.50;;;27.30;99.90;;;;;;4982854;28;20743;-76
2022/12/24 08:29:41;;;;;;;2.17;1.52;;;27.20;99.90;;;;;;4986571;28;20204;-78
2022/12/24 08:32:12;;;;;;;2.60;1.90;;;27.10;99.90;;;;;;4991393;28;20408;-75
2022/12/24 08:34:42;;;;;;;1.95;1.52;;;27.10;99.90;;;;;;4992486;28;20214;-80
2022/12/24 08:37:18;;;;;;;2.88;1.70;;;27.00;99.90;;;;;;4991894;28;20278;-81
2022/12/24 08:39:49;;;;;;;3.45;1.60;;;26.90;99.90;;;;;;4981304;28;20200;-81
2022/12/24 08:42:19;;;;;;;3.15;1.55;;;26.80;99.90;;;;;;4975813;28;20283;-80
2022/12/24 08:44:50;;;;;;;4.07;1.80;;;26.60;99.90;;;;;;4974805;28;20559;-81
2022/12/24 08:47:21;;;;;;;3.42;1.70;;;26.50;99.90;;;;;;4985124;28;20235;-79
2022/12/24 08:49:52;;;;;;;3.05;2.38;;;26.40;99.90;;;;;;4991978;28;20569;-78
2022/12/24 08:52:24;;;;;;;2.70;1.80;;;26.20;99.90;;;;;;4992572;28;20200;-79
2022/12/24 08:54:55;;;;;;;3.83;2.05;;;26.10;99.90;;;;;;4992139;28;20199;-77
2022/12/24 08:57:26;;;;;;;2.55;2.13;;;26.10;99.90;;;;;;4994023;28;20234;-80
2022/12/24 08:59:57;;;;;;;2.30;2.10;;;26.00;99.90;;;;;;4993047;28;20278;-76
2022/12/24 09:02:27;;;;;;;3.53;2.20;;;25.90;99.90;;;;;;4992255;28;20290;-77
2022/12/24 09:04:58;;;;;;;3.72;2.10;;;25.80;99.90;;;;;;4993737;28;20689;-79
2022/12/24 09:07:31;;;;;;;3.75;2.40;;;25.70;99.90;;;;;;4993891;28;20279;-82
2022/12/24 09:10:02;;;;;;;3.03;2.15;;;25.60;99.90;;;;;;4991925;28;20195;-76
2022/12/24 09:12:33;;;;;;;3.22;2.20;;;25.60;99.90;;;;;;4992036;28;20726;-76
2022/12/24 09:15:06;;;;;;;2.13;1.80;;;25.40;99.90;;;;;;4991311;28;20196;-77
2022/12/24 09:17:37;;;;;;;2.40;2.20;;;25.40;99.90;;;;;;4983358;28;20279;-80
2022/12/24 09:20:09;;;;;;;5.18;2.10;;;25.40;99.90;;;;;;4992530;28;20195;-78
2022/12/24 09:22:42;;;;;;;3.53;2.13;;;25.30;99.90;;;;;;4993803;28;20278;-81
2022/12/24 09:25:13;;;;;;;3.42;2.50;;;25.20;99.90;;;;;;4991353;28;20222;-76
2022/12/24 09:27:44;;;;;;;4.53;2.30;;;25.20;99.90;;;;;;4993187;28;20187;-80
2022/12/24 09:30:16;;;;;;;2.40;2.20;;;25.10;99.90;;;;;;4992715;28;20274;-79
2022/12/24 09:32:46;;;;;;;3.88;2.28;;;25.10;99.90;;;;;;4989645;28;20283;-76
2022/12/24 09:35:17;;;;;;;5.38;2.20;;;25.00;99.90;;;;;;4985051;28;20238;-77
2022/12/24 09:38:01;;;;;;;4.55;2.20;;;25.00;99.90;;;;;;4992091;28;20290;-79
2022/12/24 09:40:39;;;;;;;4.72;2.05;;;24.90;99.90;;;;;;4974338;28;20228;-80
2022/12/24 09:43:16;;;;;;;3.40;2.30;;;24.80;99.90;;;;;;4974280;28;20589;-79
2022/12/24 09:45:56;;;;;;;3.10;2.30;;;24.80;99.90;;;;;;4992399;28;20310;-79
2022/12/24 09:48:31;;;;;;;5.07;2.13;;;24.80;99.90;;;;;;4991964;28;20226;-79
2022/12/24 09:51:06;;;;;;;3.58;2.00;;;24.70;99.90;;;;;;4996563;28;20278;-80
2022/12/24 09:53:45;;;;;;;4.15;2.10;;;24.60;99.90;;;;;;4992242;28;20203;-77
2022/12/24 09:56:20;;;;;;;5.95;2.45;;;24.60;99.90;;;;;;4997197;28;20187;-79
2022/12/24 09:58:54;;;;;;;4.50;2.35;;;24.60;99.90;;;;;;4995442;28;20202;-78
2022/12/24 10:01:25;;;;;;;4.13;2.28;;;24.50;99.90;;;;;;4993193;28;20205;-80
2022/12/24 10:03:56;;;;;;;2.53;2.20;;;24.50;99.90;;;;;;4990198;28;20273;-79
2022/12/24 10:06:32;;;;;;;4.40;2.03;;;24.50;99.90;;;;;;4994943;28;20322;-77
2022/12/24 10:09:14;;;;;;;3.83;2.42;;;24.50;99.90;;;;;;4995943;28;20662;-76
2022/12/24 10:11:52;;;;;;;3.58;2.10;;;24.50;99.90;;;;;;4995044;28;20199;-79
2022/12/24 10:14:36;;;;;;;6.20;2.35;;;24.40;99.90;;;;;;4997155;28;20643;-78
2022/12/24 10:17:39;;;;;;;2.85;2.10;;;24.40;99.90;;;;;;4995809;28;20226;-77
2022/12/24 10:20:36;;;;;;;3.38;2.20;;;24.40;99.90;;;;;;4989107;28;20207;-77
2022/12/24 10:23:15;;;;;;;2.90;2.42;;;24.30;99.90;;;;;;4995387;28;20196;-81
2022/12/24 10:25:54;;;;;;;3.10;2.38;;;24.30;99.90;;;;;;4994652;28;20249;-78
2022/12/24 10:28:32;;;;;;;4.18;2.50;;;24.30;99.90;;;;;;4977492;28;20602;-77
2022/12/24 10:31:08;;;;;;;3.22;2.20;;;24.30;99.90;;;;;;4993227;28;20282;-78
2022/12/24 10:33:43;;;;;;;2.88;2.17;;;24.30;99.90;;;;;;4988275;28;20196;-78
2022/12/24 10:36:19;;;;;;;3.83;2.00;;;24.20;99.90;;;;;;4984181;28;20195;-79
2022/12/24 10:38:50;;;;;;;3.03;2.15;;;24.20;99.90;;;;;;4996643;28;20589;-79
2022/12/24 10:41:23;;;;;;;3.42;2.13;;;24.20;99.90;;;;;;4993757;28;20254;-78
2022/12/24 10:43:54;;;;;;;2.58;2.00;;;24.10;99.90;;;;;;4995143;28;20651;-77
2022/12/24 10:46:29;;;;;;;4.07;2.40;;;24.10;99.90;;;;;;4995239;28;20319;-76
2022/12/24 10:49:03;;;;;;;5.25;2.33;;;24.10;99.90;;;;;;4977456;28;20219;-77
2022/12/24 10:51:42;;;;;;;3.15;2.40;;;24.00;99.90;;;;;;4974834;28;20215;-77
2022/12/24 10:54:15;;;;;;;3.72;2.20;;;24.00;99.90;;;;;;4975941;28;20207;-77
2022/12/24 10:56:51;;;;;;;2.72;2.38;;;24.00;99.90;;;;;;4976142;28;20281;-79
2022/12/24 10:59:29;;;;;;;3.08;2.35;;;24.00;99.90;;;;;;4976470;28;20559;-77
2022/12/24 11:02:02;;;;;;;4.15;2.30;;;24.00;99.90;;;;;;4976310;28;20595;-77
2022/12/24 11:04:34;;;;;;;3.58;2.47;;;23.90;99.90;;;;;;4975572;28;20201;-77
2022/12/24 11:07:06;;;;;;;4.20;2.80;;;23.90;99.90;;;;;;4975724;28;20327;-76
2022/12/24 11:09:38;;;;;;;5.15;2.92;;;23.90;99.90;;;;;;4976560;28;20196;-79
2022/12/24 11:12:23;;;;;;;3.88;2.97;;;23.90;99.90;;;;;;4976632;28;20195;-76
2022/12/24 11:15:03;;;;;;;5.55;3.28;;;23.90;99.90;;;;;;4974915;28;20290;-78
2022/12/24 11:17:34;;;;;;;6.07;3.65;;;23.90;99.90;;;;;;4976209;28;20189;-77
2022/12/24 11:20:05;;;;;;;4.63;3.40;;;23.90;99.90;;;;;;4967237;28;20202;-80
2022/12/24 11:22:36;;;;;;;5.68;3.17;;;23.90;99.90;;;;;;4974161;28;20288;-80
2022/12/24 11:25:10;;;;;;;4.18;3.15;;;23.90;99.90;;;;;;4974645;28;20203;-76
2022/12/24 11:27:49;;;;;;;4.90;3.33;;;23.90;99.90;;;;;;4975093;28;20220;-75
2022/12/24 11:30:32;;;;;;;4.00;2.92;;;23.90;99.90;;;;;;4975127;28;20246;-76
2022/12/24 11:33:23;;;;;;;4.75;3.53;;;23.80;99.90;;;;;;4972283;28;20196;-76
2022/12/24 11:35:57;;;;;;;6.38;3.70;;;23.80;99.90;;;;;;4960739;28;20204;-75
2022/12/24 11:38:30;;;;;;;5.00;3.65;;;23.80;99.90;;;;;;4975088;28;20212;-76
2022/12/24 11:41:03;;;;;;;5.72;4.00;;;23.80;99.90;;;;;;4974893;28;20656;-76
2022/12/24 11:43:47;;;;;;;6.30;4.10;;;23.80;99.90;;;;;;4974715;28;20218;-79
2022/12/24 11:46:23;;;;;;;5.82;4.07;;;23.80;99.90;;;;;;4979022;28;20254;-75
2022/12/24 11:49:14;;;;;;;6.35;3.20;;;23.80;99.90;;;;;;4980473;28;20227;-77
2022/12/24 11:52:20;;;;;;;6.28;3.50;;;23.90;99.90;;;;;;4969153;28;20232;-77
2022/12/24 11:55:14;;;;;;;10.05;3.53;;;23.80;99.90;;;;;;4969253;28;20287;-78
2022/12/24 11:57:54;;;;;;;6.25;3.30;;;23.70;99.90;;;;;;4973393;28;20711;-76
2022/12/24 12:00:28;;;;;;;10.38;3.72;;;23.60;99.90;;;;;;4972731;28;20283;-78
2022/12/24 12:03:02;;;;;;;9.63;4.05;;;23.40;99.90;;;;;;4972197;28;20204;-77
2022/12/24 12:05:39;;;;;;;8.73;3.75;;;23.30;99.90;;;;;;4961484;28;20298;-79
2022/12/24 12:08:17;;;;;;;7.35;4.15;;;23.20;99.90;;;;;;4975913;28;20188;-76
2022/12/24 12:10:49;;;;;;;7.72;4.45;;;23.10;99.90;;;;;;4969905;28;20282;-76
2022/12/24 12:13:24;;;;;;;6.47;4.60;;;22.90;99.90;;;;;;4974365;28;20204;-77
2022/12/24 12:16:09;;;;;;;9.13;4.97;;;22.80;99.90;;;;;;4972973;28;20335;-76
2022/12/24 12:18:42;;;;;;;9.85;5.90;;;22.80;99.90;;;;;;4975258;28;20290;-76
2022/12/24 12:21:18;;;;;;;13.00;5.78;;;22.70;99.90;;;;;;4975224;28;20763;-77
2022/12/24 12:23:51;;;;;;;7.78;5.30;;;22.70;99.90;;;;;;4975180;28;20279;-76
2022/12/24 12:26:26;;;;;;;8.48;5.90;;;22.70;99.90;;;;;;4974890;28;20307;-77
2022/12/24 12:29:00;;;;;;;7.88;5.55;;;22.60;99.90;;;;;;4974738;28;20194;-76
2022/12/24 12:31:37;;;;;;;8.57;5.90;;;22.60;99.90;;;;;;4975416;28;20235;-76
2022/12/24 12:34:15;;;;;;;10.65;6.15;;;22.60;99.90;;;;;;4975078;28;20295;-75
2022/12/24 12:36:49;;;;;;;9.02;5.70;;;22.60;99.90;;;;;;4974710;28;20703;-76
2022/12/24 12:39:20;;;;;;;8.88;6.05;;;22.60;99.90;;;;;;4975020;28;20194;-78
2022/12/24 12:41:59;;;;;;;16.48;6.40;;;22.50;99.90;;;;;;4990003;28;20667;-76
2022/12/24 12:44:51;;;;;;;9.80;6.70;;;22.50;99.90;;;;;;4994352;28;20274;-77
2022/12/24 12:48:01;;;;;;;11.73;6.78;;;22.40;99.90;;;;;;4969735;28;20231;-77
2022/12/24 12:50:36;;;;;;;13.45;6.72;;;22.40;99.90;;;;;;4985466;28;20680;-77
2022/12/24 12:53:27;;;;;;;17.33;8.10;;;22.40;99.90;;;;;;4974817;28;20286;-76
2022/12/24 12:56:06;;;;;;;18.27;7.75;;;22.30;99.90;;;;;;4974462;28;20712;-75
2022/12/24 12:58:43;;;;;;;12.63;7.80;;;22.40;99.90;;;;;;4974479;28;20192;-77
2022/12/24 13:01:23;;;;;;;13.65;6.97;;;22.30;99.90;;;;;;4974572;28;20196;-76
2022/12/24 13:04:43;;;;;;;16.83;8.02;;;22.20;99.90;;;;;;4974683;28;20196;-76
2022/12/24 13:07:48;;;;;;;17.52;7.45;;;22.20;99.90;;;;;;4974251;28;20299;-77
2022/12/24 13:10:41;;;;;;;23.88;7.32;;;22.10;99.90;;;;;;4970961;28;20559;-77
2022/12/24 13:13:45;;;;;;;17.08;7.00;;;22.00;99.90;;;;;;4971605;28;20295;-77
2022/12/24 13:16:42;;;;;;;19.50;7.25;;;22.00;99.90;;;;;;4964336;28;20679;-77
2022/12/24 13:19:26;;;;;;;17.67;7.50;;;22.00;99.90;;;;;;4972406;28;20200;-75
2022/12/24 13:21:58;;;;;;;18.63;7.20;;;21.90;99.90;;;;;;4974249;28;20188;-76
2022/12/24 13:24:31;;;;;;;15.77;7.55;;;21.90;99.90;;;;;;4974371;28;20200;-77
2022/12/24 13:27:05;;;;;;;18.33;7.57;;;21.80;99.90;;;;;;4973991;28;20262;-76
2022/12/24 13:29:53;;;;;;;13.00;6.97;;;21.90;99.90;;;;;;4974443;28;20218;-77
2022/12/24 13:32:54;;;;;;;21.23;7.22;;;21.80;99.90;;;;;;4973842;28;20678;-76
2022/12/24 13:35:38;;;;;;;20.40;6.78;;;21.80;99.90;;;;;;4896060;29;20202;-75